sensor_id;sensor_type;location;lat;lon;timestamp;pressure;altitude;pressure_sealevel;temperature;humidity
33635;BME280;19972;54.360;10.076;2022-11-20T00:00:16;100838.75;;;0.58;100.00
33635;BME280;19972;54.360;10.076;2022-11-20T00:02:42;100834.91;;;0.34;100.00
33635;BME280;19972;54.360;10.076;2022-11-20T00:05:09;100841.28;;;0.62;100.00
33635;BME280;19972;54.360;10.076;2022-11-20T00:07:35;100836.28;;;0.50;100.00
33635;BME280;19972;54.360;10.076;2022-11-20T00:10:02;100847.72;;;0.46;100.00
33635;BME280;19972;54.360;10.076;2022-11-20T00:12:28;100845.34;;;0.34;100.00
33635;BME280;19972;54.360;10.076;2022-11-20T00:14:55;100844.66;;;0.67;100.00
33635;BME280;19972;54.360;10.076;2022-11-20T00:17:21;100834.91;;;0.74;100.00
33635;BME280;19972;54.360;10.076;2022-11-20T00:19:47;100836.63;;;0.75;100.00
33635;BME280;19972;54.360;10.076;2022-11-20T00:22:14;100830.16;;;0.52;100.00
33635;BME280;19972;54.360;10.076;2022-11-20T00:24:41;100831.13;;;0.47;100.00
33635;BME280;19972;54.360;10.076;2022-11-20T00:27:08;100837.69;;;0.66;100.00
33635;BME280;19972;54.360;10.076;2022-11-20T00:29:35;100830.69;;;0.68;100.00
33635;BME280;19972;54.360;10.076;2022-11-20T00:32:01;100831.31;;;0.79;100.00
33635;BME280;19972;54.360;10.076;2022-11-20T00:34:28;100818.00;;;0.50;100.00
33635;BME280;19972;54.360;10.076;2022-11-20T00:36:54;100814.88;;;0.74;100.00
33635;BME280;19972;54.360;10.076;2022-11-20T00:39:20;100810.16;;;0.50;100.00
33635;BME280;19972;54.360;10.076;2022-11-20T00:41:47;100812.75;;;0.51;100.00
33635;BME280;19972;54.360;10.076;2022-11-20T00:44:14;100815.28;;;0.56;100.00
33635;BME280;19972;54.360;10.076;2022-11-20T00:46:40;100806.69;;;0.51;100.00
33635;BME280;19972;54.360;10.076;2022-11-20T00:49:07;100804.75;;;0.59;100.00
33635;BME280;19972;54.360;10.076;2022-11-20T00:51:33;100807.81;;;0.38;100.00
33635;BME280;19972;54.360;10.076;2022-11-20T00:54:00;100801.59;;;0.45;100.00
33635;BME280;19972;54.360;10.076;2022-11-20T00:56:28;100798.91;;;0.48;100.00
33635;BME280;19972;54.360;10.076;2022-11-20T00:58:55;100804.13;;;0.48;100.00
33635;BME280;19972;54.360;10.076;2022-11-20T01:01:24;100806.13;;;0.75;100.00
33635;BME280;19972;54.360;10.076;2022-11-20T01:03:52;100800.84;;;0.78;100.00
33635;BME280;19972;54.360;10.076;2022-11-20T01:06:27;100796.81;;;0.64;100.00
33635;BME280;19972;54.360;10.076;2022-11-20T01:08:56;100789.41;;;0.44;100.00
33635;BME280;19972;54.360;10.076;2022-11-20T01:11:25;100798.22;;;0.40;100.00
33635;BME280;19972;54.360;10.076;2022-11-20T01:13:54;100801.59;;;0.45;100.00
33635;BME280;19972;54.360;10.076;2022-11-20T01:18:50;100812.81;;;0.48;100.00
33635;BME280;19972;54.360;10.076;2022-11-20T01:21:21;100806.69;;;0.51;100.00
33635;BME280;19972;54.360;10.076;2022-11-20T01:23:48;100799.53;;;0.59;100.00
33635;BME280;19972;54.360;10.076;2022-11-20T01:26:21;100804.00;;;0.54;100.00
33635;BME280;19972;54.360;10.076;2022-11-20T01:28:48;100795.53;;;0.82;100.00
33635;BME280;19972;54.360;10.076;2022-11-20T01:31:21;100788.31;;;0.93;100.00
33635;BME280;19972;54.360;10.076;2022-11-20T01:33:50;100782.19;;;0.55;100.00
33635;BME280;19972;54.360;10.076;2022-11-20T01:36:19;100781.19;;;0.62;100.00
33635;BME280;19972;54.360;10.076;2022-11-20T01:38:46;100766.97;;;0.74;100.00
33635;BME280;19972;54.360;10.076;2022-11-20T01:41:15;100767.75;;;0.77;100.00
33635;BME280;19972;54.360;10.076;2022-11-20T01:44:00;100753.81;;;0.78;100.00
33635;BME280;19972;54.360;10.076;2022-11-20T01:46:27;100753.03;;;0.75;100.00
33635;BME280;19972;54.360;10.076;2022-11-20T01:49:04;100736.47;;;0.74;100.00
33635;BME280;19972;54.360;10.076;2022-11-20T01:51:40;100733.41;;;0.57;100.00
33635;BME280;19972;54.360;10.076;2022-11-20T01:54:17;100737.03;;;0.50;100.00
33635;BME280;19972;54.360;10.076;2022-11-20T01:56:48;100725.88;;;0.81;100.00
33635;BME280;19972;54.360;10.076;2022-11-20T01:59:19;100719.44;;;0.58;100.00
33635;BME280;19972;54.360;10.076;2022-11-20T02:01:47;100720.19;;;0.99;100.00
33635;BME280;19972;54.360;10.076;2022-11-20T02:04:14;100705.63;;;0.90;100.00
33635;BME280;19972;54.360;10.076;2022-11-20T02:06:59;100704.13;;;0.80;100.00
33635;BME280;19972;54.360;10.076;2022-11-20T02:09:27;100685.47;;;0.94;100.00
33635;BME280;19972;54.360;10.076;2022-11-20T02:11:54;100692.13;;;0.71;100.00
33635;BME280;19972;54.360;10.076;2022-11-20T02:14:22;100681.16;;;0.57;100.00
33635;BME280;19972;54.360;10.076;2022-11-20T02:16:49;100680.41;;;0.88;100.00
33635;BME280;19972;54.360;10.076;2022-11-20T02:21:59;100675.97;;;0.91;100.00
33635;BME280;19972;54.360;10.076;2022-11-20T02:24:26;100682.56;;;0.70;100.00
33635;BME280;19972;54.360;10.076;2022-11-20T02:26:56;100684.00;;;0.84;100.00
33635;BME280;19972;54.360;10.076;2022-11-20T02:29:26;100674.84;;;0.67;100.00
33635;BME280;19972;54.360;10.076;2022-11-20T02:31:54;100674.56;;;0.78;100.00
33635;BME280;19972;54.360;10.076;2022-11-20T02:34:21;100649.25;;;0.44;100.00
33635;BME280;19972;54.360;10.076;2022-11-20T02:36:48;100641.41;;;0.80;100.00
33635;BME280;19972;54.360;10.076;2022-11-20T02:39:15;100623.97;;;0.81;100.00
33635;BME280;19972;54.360;10.076;2022-11-20T02:41:46;100618.22;;;0.66;100.00
33635;BME280;19972;54.360;10.076;2022-11-20T02:44:12;100618.44;;;0.59;100.00
33635;BME280;19972;54.360;10.076;2022-11-20T02:46:39;100622.75;;;0.60;100.00
33635;BME280;19972;54.360;10.076;2022-11-20T02:49:05;100617.75;;;0.52;100.00
33635;BME280;19972;54.360;10.076;2022-11-20T02:51:32;100600.69;;;0.71;100.00
33635;BME280;19972;54.360;10.076;2022-11-20T02:53:58;100605.91;;;0.71;100.00
33635;BME280;19972;54.360;10.076;2022-11-20T02:56:25;100599.50;;;0.85;100.00
33635;BME280;19972;54.360;10.076;2022-11-20T02:58:52;100598.75;;;0.79;100.00
33635;BME280;19972;54.360;10.076;2022-11-20T03:01:19;100588.28;;;0.79;100.00
33635;BME280;19972;54.360;10.076;2022-11-20T03:03:45;100585.19;;;0.65;100.00
33635;BME280;19972;54.360;10.076;2022-11-20T03:06:12;100591.66;;;0.85;100.00
33635;BME280;19972;54.360;10.076;2022-11-20T03:08:38;100580.56;;;0.75;100.00
33635;BME280;19972;54.360;10.076;2022-11-20T03:11:06;100582.72;;;0.59;100.00
33635;BME280;19972;54.360;10.076;2022-11-20T03:13:33;100585.44;;;0.56;100.00
33635;BME280;19972;54.360;10.076;2022-11-20T03:16:30;100580.97;;;0.60;100.00
33635;BME280;19972;54.360;10.076;2022-11-20T03:18:56;100579.38;;;0.54;100.00
33635;BME280;19972;54.360;10.076;2022-11-20T03:21:23;100581.75;;;0.63;100.00
33635;BME280;19972;54.360;10.076;2022-11-20T03:23:49;100580.44;;;0.47;100.00
33635;BME280;19972;54.360;10.076;2022-11-20T03:26:18;100574.31;;;0.48;100.00
33635;BME280;19972;54.360;10.076;2022-11-20T03:28:50;100587.56;;;0.39;100.00
33635;BME280;19972;54.360;10.076;2022-11-20T03:31:20;100587.47;;;0.45;100.00
33635;BME280;19972;54.360;10.076;2022-11-20T03:33:46;100587.50;;;0.42;100.00
33635;BME280;19972;54.360;10.076;2022-11-20T03:36:15;100587.47;;;0.43;100.00
33635;BME280;19972;54.360;10.076;2022-11-20T03:38:42;100590.47;;;0.28;100.00
33635;BME280;19972;54.360;10.076;2022-11-20T03:41:11;100596.47;;;0.32;100.00
33635;BME280;19972;54.360;10.076;2022-11-20T03:43:38;100597.97;;;0.42;100.00
33635;BME280;19972;54.360;10.076;2022-11-20T03:46:05;100597.81;;;0.48;100.00
33635;BME280;19972;54.360;10.076;2022-11-20T03:48:32;100598.00;;;0.40;100.00
33635;BME280;19972;54.360;10.076;2022-11-20T03:51:22;100613.03;;;0.31;100.00
33635;BME280;19972;54.360;10.076;2022-11-20T03:53:50;100603.13;;;0.45;100.00
33635;BME280;19972;54.360;10.076;2022-11-20T03:56:18;100612.06;;;0.35;100.00
33635;BME280;19972;54.360;10.076;2022-11-20T03:58:45;100613.25;;;0.21;100.00
33635;BME280;19972;54.360;10.076;2022-11-20T04:01:17;100607.69;;;0.35;100.00
33635;BME280;19972;54.360;10.076;2022-11-20T04:03:45;100614.69;;;0.35;100.00
33635;BME280;19972;54.360;10.076;2022-11-20T04:06:20;100625.72;;;0.46;100.00
33635;BME280;19972;54.360;10.076;2022-11-20T04:08:47;100617.69;;;0.53;100.00
33635;BME280;19972;54.360;10.076;2022-11-20T04:11:21;100619.06;;;0.68;100.00
33635;BME280;19972;54.360;10.076;2022-11-20T04:13:53;100629.19;;;0.46;100.00
33635;BME280;19972;54.360;10.076;2022-11-20T04:16:20;100636.19;;;0.44;100.00
33635;BME280;19972;54.360;10.076;2022-11-20T04:18:51;100633.56;;;0.46;100.00
33635;BME280;19972;54.360;10.076;2022-11-20T04:21:18;100644.16;;;0.38;100.00
33635;BME280;19972;54.360;10.076;2022-11-20T04:23:44;100641.44;;;0.43;100.00
33635;BME280;19972;54.360;10.076;2022-11-20T04:26:11;100648.63;;;0.35;100.00
33635;BME280;19972;54.360;10.076;2022-11-20T04:28:38;100655.13;;;0.17;100.00
33635;BME280;19972;54.360;10.076;2022-11-20T04:31:10;100659.88;;;-0.02;100.00
33635;BME280;19972;54.360;10.076;2022-11-20T04:33:37;100672.16;;;-0.07;100.00
33635;BME280;19972;54.360;10.076;2022-11-20T04:36:11;100673.47;;;-0.27;100.00
33635;BME280;19972;54.360;10.076;2022-11-20T04:38:38;100681.94;;;-0.15;100.00
33635;BME280;19972;54.360;10.076;2022-11-20T04:41:07;100688.03;;;-0.16;100.00
33635;BME280;19972;54.360;10.076;2022-11-20T04:43:34;100702.47;;;0.00;100.00
33635;BME280;19972;54.360;10.076;2022-11-20T04:46:01;100702.63;;;-0.08;100.00
33635;BME280;19972;54.360;10.076;2022-11-20T04:48:28;100699.75;;;0.06;100.00
33635;BME280;19972;54.360;10.076;2022-11-20T04:50:55;100691.09;;;0.03;100.00
33635;BME280;19972;54.360;10.076;2022-11-20T04:53:23;100685.94;;;0.01;100.00
33635;BME280;19972;54.360;10.076;2022-11-20T04:55:49;100686.16;;;-0.11;100.00
33635;BME280;19972;54.360;10.076;2022-11-20T04:58:16;100694.88;;;-0.12;100.00
33635;BME280;19972;54.360;10.076;2022-11-20T05:00:42;100692.91;;;-0.01;100.00
33635;BME280;19972;54.360;10.076;2022-11-20T05:03:09;100692.72;;;0.08;100.00
33635;BME280;19972;54.360;10.076;2022-11-20T05:05:35;100684.94;;;0.05;100.00
33635;BME280;19972;54.360;10.076;2022-11-20T05:08:02;100690.28;;;0.01;100.00
33635;BME280;19972;54.360;10.076;2022-11-20T05:10:28;100687.69;;;-0.01;100.00
33635;BME280;19972;54.360;10.076;2022-11-20T05:12:56;100687.78;;;-0.04;100.00
33635;BME280;19972;54.360;10.076;2022-11-20T05:15:23;100689.53;;;-0.06;100.00
33635;BME280;19972;54.360;10.076;2022-11-20T05:17:50;100699.00;;;-0.01;100.00
33635;BME280;19972;54.360;10.076;2022-11-20T05:20:17;100694.00;;;-0.11;100.00
33635;BME280;19972;54.360;10.076;2022-11-20T05:22:44;100706.25;;;-0.15;100.00
33635;BME280;19972;54.360;10.076;2022-11-20T05:25:11;100732.53;;;-0.24;100.00
33635;BME280;19972;54.360;10.076;2022-11-20T05:27:38;100720.44;;;-0.28;100.00
33635;BME280;19972;54.360;10.076;2022-11-20T05:30:05;100723.66;;;-0.15;100.00
33635;BME280;19972;54.360;10.076;2022-11-20T05:32:32;100721.91;;;-0.15;100.00
33635;BME280;19972;54.360;10.076;2022-11-20T05:34:58;100729.66;;;-0.10;100.00
33635;BME280;19972;54.360;10.076;2022-11-20T05:37:25;100732.06;;;-0.01;100.00
33635;BME280;19972;54.360;10.076;2022-11-20T05:39:52;100728.09;;;0.21;100.00
33635;BME280;19972;54.360;10.076;2022-11-20T05:42:18;100731.91;;;0.07;100.00
33635;BME280;19972;54.360;10.076;2022-11-20T05:44:57;100724.22;;;-0.01;100.00
33635;BME280;19972;54.360;10.076;2022-11-20T05:47:24;100719.59;;;0.13;100.00
33635;BME280;19972;54.360;10.076;2022-11-20T05:49:51;100715.41;;;0.06;100.00
33635;BME280;19972;54.360;10.076;2022-11-20T05:52:18;100719.00;;;-0.01;100.00
33635;BME280;19972;54.360;10.076;2022-11-20T05:54:44;100722.59;;;-0.05;100.00
33635;BME280;19972;54.360;10.076;2022-11-20T05:57:11;100717.16;;;0.04;100.00
33635;BME280;19972;54.360;10.076;2022-11-20T05:59:37;100720.84;;;-0.06;100.00
33635;BME280;19972;54.360;10.076;2022-11-20T06:02:04;100717.44;;;-0.08;100.00
33635;BME280;19972;54.360;10.076;2022-11-20T06:04:30;100721.19;;;-0.21;100.00
33635;BME280;19972;54.360;10.076;2022-11-20T06:06:56;100721.81;;;-0.10;100.00
33635;BME280;19972;54.360;10.076;2022-11-20T06:09:23;100721.88;;;-0.13;100.00
33635;BME280;19972;54.360;10.076;2022-11-20T06:11:49;100724.53;;;-0.15;100.00
33635;BME280;19972;54.360;10.076;2022-11-20T06:14:16;100731.38;;;-0.09;100.00
33635;BME280;19972;54.360;10.076;2022-11-20T06:16:42;100733.34;;;-0.20;100.00
33635;BME280;19972;54.360;10.076;2022-11-20T06:19:09;100742.97;;;-0.24;100.00
33635;BME280;19972;54.360;10.076;2022-11-20T06:21:35;100736.50;;;-0.05;100.00
33635;BME280;19972;54.360;10.076;2022-11-20T06:24:02;100746.22;;;-0.13;100.00
33635;BME280;19972;54.360;10.076;2022-11-20T06:26:30;100763.66;;;-0.15;100.00
33635;BME280;19972;54.360;10.076;2022-11-20T06:28:57;100767.22;;;-0.19;100.00
33635;BME280;19972;54.360;10.076;2022-11-20T06:31:24;100773.56;;;-0.34;100.00
33635;BME280;19972;54.360;10.076;2022-11-20T06:33:52;100774.34;;;-0.27;100.00
33635;BME280;19972;54.360;10.076;2022-11-20T06:36:21;100780.69;;;-0.42;100.00
33635;BME280;19972;54.360;10.076;2022-11-20T06:38:48;100780.56;;;-0.36;100.00
33635;BME280;19972;54.360;10.076;2022-11-20T06:41:17;100785.91;;;-0.42;100.00
33635;BME280;19972;54.360;10.076;2022-11-20T06:43:44;100790.19;;;-0.39;100.00
33635;BME280;19972;54.360;10.076;2022-11-20T06:46:12;100783.91;;;-0.28;100.00
33635;BME280;19972;54.360;10.076;2022-11-20T06:48:39;100788.09;;;-0.19;100.00
33635;BME280;19972;54.360;10.076;2022-11-20T06:51:07;100784.56;;;-0.16;100.00
33635;BME280;19972;54.360;10.076;2022-11-20T06:53:35;100784.41;;;-0.09;100.00
33635;BME280;19972;54.360;10.076;2022-11-20T06:56:01;100789.88;;;-0.21;100.00
33635;BME280;19972;54.360;10.076;2022-11-20T06:58:30;100789.91;;;-0.24;100.00
33635;BME280;19972;54.360;10.076;2022-11-20T07:00:58;100800.34;;;-0.24;100.00
33635;BME280;19972;54.360;10.076;2022-11-20T07:03:25;100797.78;;;-0.25;100.00
33635;BME280;19972;54.360;10.076;2022-11-20T07:05:54;100794.28;;;-0.24;100.00
33635;BME280;19972;54.360;10.076;2022-11-20T07:08:22;100785.38;;;-0.14;100.00
33635;BME280;19972;54.360;10.076;2022-11-20T07:10:48;100788.81;;;-0.12;100.00
33635;BME280;19972;54.360;10.076;2022-11-20T07:13:15;100779.41;;;-0.19;100.00
33635;BME280;19972;54.360;10.076;2022-11-20T07:15:42;100780.16;;;-0.14;100.00
33635;BME280;19972;54.360;10.076;2022-11-20T07:18:08;100768.91;;;-0.16;100.00
33635;BME280;19972;54.360;10.076;2022-11-20T07:20:35;100768.84;;;-0.13;100.00
33635;BME280;19972;54.360;10.076;2022-11-20T07:23:01;100748.59;;;-0.02;100.00
33635;BME280;19972;54.360;10.076;2022-11-20T07:25:28;100740.72;;;0.41;100.00
33635;BME280;19972;54.360;10.076;2022-11-20T07:27:59;100734.34;;;0.14;100.00
33635;BME280;19972;54.360;10.076;2022-11-20T07:30:26;100724.19;;;0.02;100.00
33635;BME280;19972;54.360;10.076;2022-11-20T07:32:54;100719.09;;;-0.06;100.00
33635;BME280;19972;54.360;10.076;2022-11-20T07:35:22;100722.50;;;-0.02;100.00
33635;BME280;19972;54.360;10.076;2022-11-20T07:37:49;100724.19;;;0.02;100.00
33635;BME280;19972;54.360;10.076;2022-11-20T07:40:16;100715.63;;;-0.06;100.00
33635;BME280;19972;54.360;10.076;2022-11-20T07:42:50;100712.06;;;-0.02;100.00
33635;BME280;19972;54.360;10.076;2022-11-20T07:45:18;100715.59;;;-0.03;100.00
33635;BME280;19972;54.360;10.076;2022-11-20T07:47:45;100709.44;;;-0.01;100.00
33635;BME280;19972;54.360;10.076;2022-11-20T07:50:12;100705.53;;;0.19;100.00
33635;BME280;19972;54.360;10.076;2022-11-20T07:52:39;100705.34;;;0.28;100.00
33635;BME280;19972;54.360;10.076;2022-11-20T07:55:07;100703.50;;;0.32;100.00
33635;BME280;19972;54.360;10.076;2022-11-20T07:57:34;100713.09;;;0.31;100.00
33635;BME280;19972;54.360;10.076;2022-11-20T08:00:01;100705.41;;;0.25;100.00
33635;BME280;19972;54.360;10.076;2022-11-20T08:02:27;100702.06;;;0.18;100.00
33635;BME280;19972;54.360;10.076;2022-11-20T08:04:54;100707.97;;;0.26;100.00
33635;BME280;19972;54.360;10.076;2022-11-20T08:07:20;100708.59;;;0.38;100.00
33635;BME280;19972;54.360;10.076;2022-11-20T08:09:47;100702.56;;;0.36;100.00
33635;BME280;19972;54.360;10.076;2022-11-20T08:12:19;100700.47;;;0.50;100.00
33635;BME280;19972;54.360;10.076;2022-11-20T08:15:06;100706.03;;;0.72;100.00
33635;BME280;19972;54.360;10.076;2022-11-20T08:17:38;100696.06;;;0.89;100.00
33635;BME280;19972;54.360;10.076;2022-11-20T08:20:05;100683.06;;;1.20;100.00
33635;BME280;19972;54.360;10.076;2022-11-20T08:22:32;100660.41;;;1.52;100.00
33635;BME280;19972;54.360;10.076;2022-11-20T08:24:58;100648.31;;;1.77;100.00
33635;BME280;19972;54.360;10.076;2022-11-20T08:27:25;100647.81;;;1.65;100.00
33635;BME280;19972;54.360;10.076;2022-11-20T08:29:51;100638.91;;;1.41;100.00
33635;BME280;19972;54.360;10.076;2022-11-20T08:32:17;100639.03;;;1.36;100.00
33635;BME280;19972;54.360;10.076;2022-11-20T08:34:44;100634.53;;;1.41;100.00
33635;BME280;19972;54.360;10.076;2022-11-20T08:37:11;100644.03;;;0.80;100.00
33635;BME280;19972;54.360;10.076;2022-11-20T08:39:37;100618.16;;;0.69;100.00
33635;BME280;19972;54.360;10.076;2022-11-20T08:42:07;100601.41;;;0.78;100.00
33635;BME280;19972;54.360;10.076;2022-11-20T08:44:34;100583.69;;;0.57;100.00
33635;BME280;19972;54.360;10.076;2022-11-20T08:47:00;100583.00;;;0.48;100.00
33635;BME280;19972;54.360;10.076;2022-11-20T08:49:27;100572.84;;;0.70;100.00
33635;BME280;19972;54.360;10.076;2022-11-20T08:51:54;100559.88;;;0.67;100.00
33635;BME280;19972;54.360;10.076;2022-11-20T08:54:21;100563.69;;;0.56;100.00
33635;BME280;19972;54.360;10.076;2022-11-20T08:56:48;100545.66;;;0.45;100.00
33635;BME280;19972;54.360;10.076;2022-11-20T08:59:15;100542.31;;;0.40;100.00
33635;BME280;19972;54.360;10.076;2022-11-20T09:02:01;100530.06;;;0.42;100.00
33635;BME280;19972;54.360;10.076;2022-11-20T09:04:28;100521.53;;;0.35;100.00
33635;BME280;19972;54.360;10.076;2022-11-20T09:06:55;100517.75;;;0.47;100.00
33635;BME280;19972;54.360;10.076;2022-11-20T09:09:21;100514.34;;;0.76;100.00
33635;BME280;19972;54.360;10.076;2022-11-20T09:11:48;100504.84;;;0.73;100.00
33635;BME280;19972;54.360;10.076;2022-11-20T09:14:16;100490.78;;;0.77;100.00
33635;BME280;19972;54.360;10.076;2022-11-20T09:16:44;100478.81;;;1.01;100.00
33635;BME280;19972;54.360;10.076;2022-11-20T09:19:11;100469.75;;;0.84;100.00
33635;BME280;19972;54.360;10.076;2022-11-20T09:21:57;100462.59;;;0.89;100.00
33635;BME280;19972;54.360;10.076;2022-11-20T09:24:26;100452.16;;;0.89;100.00
33635;BME280;19972;54.360;10.076;2022-11-20T09:26:52;100457.25;;;0.93;100.00
33635;BME280;19972;54.360;10.076;2022-11-20T09:29:19;100446.16;;;1.15;100.00
33635;BME280;19972;54.360;10.076;2022-11-20T09:31:46;100441.56;;;0.93;100.00
33635;BME280;19972;54.360;10.076;2022-11-20T09:34:12;100431.59;;;0.76;100.00
33635;BME280;19972;54.360;10.076;2022-11-20T09:36:38;100426.91;;;0.88;100.00
33635;BME280;19972;54.360;10.076;2022-11-20T09:39:05;100427.00;;;1.14;100.00
33635;BME280;19972;54.360;10.076;2022-11-20T09:55:36;100371.34;;;1.11;100.00
33635;BME280;19972;54.360;10.076;2022-11-20T09:58:06;100358.44;;;1.06;100.00
33635;BME280;19972;54.360;10.076;2022-11-20T10:00:35;100357.94;;;1.21;100.00
33635;BME280;19972;54.360;10.076;2022-11-20T10:03:20;100343.16;;;1.20;100.00
33635;BME280;19972;54.360;10.076;2022-11-20T10:05:54;100333.00;;;1.38;100.00
33635;BME280;19972;54.360;10.076;2022-11-20T10:08:28;100317.94;;;1.46;100.00
33635;BME280;19972;54.360;10.076;2022-11-20T10:11:19;100308.97;;;1.53;100.00
33635;BME280;19972;54.360;10.076;2022-11-20T10:14:01;100295.59;;;1.36;100.00
33635;BME280;19972;54.360;10.076;2022-11-20T10:16:57;100296.03;;;1.48;100.00
33635;BME280;19972;54.360;10.076;2022-11-20T10:25:16;100279.19;;;1.57;100.00
33635;BME280;19972;54.360;10.076;2022-11-20T10:30:30;100275.75;;;1.55;100.00
33635;BME280;19972;54.360;10.076;2022-11-20T10:33:05;100274.69;;;1.61;100.00
33635;BME280;19972;54.360;10.076;2022-11-20T10:35:43;100282.38;;;1.40;100.00
33635;BME280;19972;54.360;10.076;2022-11-20T10:38:21;100277.56;;;1.53;100.00
33635;BME280;19972;54.360;10.076;2022-11-20T10:40:54;100281.09;;;1.77;100.00
33635;BME280;19972;54.360;10.076;2022-11-20T10:43:43;100284.25;;;1.87;100.00
33635;BME280;19972;54.360;10.076;2022-11-20T10:46:15;100298.56;;;1.76;100.00
33635;BME280;19972;54.360;10.076;2022-11-20T10:48:44;100303.44;;;1.62;100.00
33635;BME280;19972;54.360;10.076;2022-11-20T10:51:35;100292.47;;;1.76;100.00
33635;BME280;19972;54.360;10.076;2022-11-20T10:54:17;100307.13;;;1.55;100.00
33635;BME280;19972;54.360;10.076;2022-11-20T10:56:48;100305.34;;;1.57;100.00
33635;BME280;19972;54.360;10.076;2022-11-20T11:01:47;100320.19;;;1.81;100.00
33635;BME280;19972;54.360;10.076;2022-11-20T11:06:49;100304.41;;;1.84;100.00
33635;BME280;19972;54.360;10.076;2022-11-20T11:09:22;100324.56;;;2.06;100.00
33635;BME280;19972;54.360;10.076;2022-11-20T11:11:52;100306.84;;;3.05;100.00
33635;BME280;19972;54.360;10.076;2022-11-20T11:14:19;100326.66;;;4.36;100.00
33635;BME280;19972;54.360;10.076;2022-11-20T11:16:56;100353.25;;;4.86;100.00
33635;BME280;19972;54.360;10.076;2022-11-20T11:19:23;100356.66;;;4.50;100.00
33635;BME280;19972;54.360;10.076;2022-11-20T11:21:53;100359.88;;;3.55;100.00
33635;BME280;19972;54.360;10.076;2022-11-20T11:27:13;100347.03;;;3.69;100.00
33635;BME280;19972;54.360;10.076;2022-11-20T11:29:42;100354.28;;;4.84;100.00
33635;BME280;19972;54.360;10.076;2022-11-20T11:32:14;100362.63;;;6.00;100.00
33635;BME280;19972;54.360;10.076;2022-11-20T11:34:41;100383.56;;;7.19;100.00
33635;BME280;19972;54.360;10.076;2022-11-20T11:37:16;100404.84;;;7.00;100.00
33635;BME280;19972;54.360;10.076;2022-11-20T11:39:44;100414.50;;;7.78;100.00
33635;BME280;19972;54.360;10.076;2022-11-20T11:42:20;100439.69;;;8.30;100.00
33635;BME280;19972;54.360;10.076;2022-11-20T11:44:47;100470.09;;;8.53;100.00
33635;BME280;19972;54.360;10.076;2022-11-20T11:47:36;100469.50;;;8.17;100.00
33635;BME280;19972;54.360;10.076;2022-11-20T11:55:17;100533.91;;;7.04;100.00
33635;BME280;19972;54.360;10.076;2022-11-20T11:58:09;100558.16;;;8.99;100.00
33635;BME280;19972;54.360;10.076;2022-11-20T12:00:39;100576.94;;;9.24;100.00
33635;BME280;19972;54.360;10.076;2022-11-20T12:03:19;100600.28;;;8.73;100.00
33635;BME280;19972;54.360;10.076;2022-11-20T12:05:52;100613.69;;;8.70;100.00
33635;BME280;19972;54.360;10.076;2022-11-20T12:11:20;100662.28;;;8.06;100.00
33635;BME280;19972;54.360;10.076;2022-11-20T12:14:01;100657.31;;;8.00;100.00
33635;BME280;19972;54.360;10.076;2022-11-20T12:16:35;100666.63;;;8.70;100.00
33635;BME280;19972;54.360;10.076;2022-11-20T12:19:07;100687.00;;;8.05;100.00
33635;BME280;19972;54.360;10.076;2022-11-20T12:21:46;100696.72;;;8.99;100.00
33635;BME280;19972;54.360;10.076;2022-11-20T12:30:02;100643.16;;;8.01;100.00
33635;BME280;19972;54.360;10.076;2022-11-20T12:32:51;100639.16;;;6.76;100.00
33635;BME280;19972;54.360;10.076;2022-11-20T12:38:31;100604.47;;;4.32;100.00
33635;BME280;19972;54.360;10.076;2022-11-20T12:43:57;100557.16;;;4.32;100.00
33635;BME280;19972;54.360;10.076;2022-11-20T12:46:51;100542.63;;;4.45;100.00
33635;BME280;19972;54.360;10.076;2022-11-20T12:49:30;100542.75;;;4.20;100.00
33635;BME280;19972;54.360;10.076;2022-11-20T12:54:50;100518.84;;;3.84;100.00
33635;BME280;19972;54.360;10.076;2022-11-20T13:00:19;100519.06;;;7.35;100.00
33635;BME280;19972;54.360;10.076;2022-11-20T13:05:37;100549.69;;;8.18;100.00
33635;BME280;19972;54.360;10.076;2022-11-20T13:08:18;100548.63;;;10.36;100.00
33635;BME280;19972;54.360;10.076;2022-11-20T13:13:28;100534.38;;;10.24;100.00
33635;BME280;19972;54.360;10.076;2022-11-20T13:16:07;100531.34;;;10.83;100.00
33635;BME280;19972;54.360;10.076;2022-11-20T13:18:39;100538.81;;;9.83;100.00
33635;BME280;19972;54.360;10.076;2022-11-20T13:21:47;100540.47;;;10.12;100.00
33635;BME280;19972;54.360;10.076;2022-11-20T13:26:46;100441.03;;;11.69;100.00
33635;BME280;19972;54.360;10.076;2022-11-20T13:29:19;100422.25;;;11.35;100.00
33635;BME280;19972;54.360;10.076;2022-11-20T13:31:47;100438.66;;;11.04;100.00
33635;BME280;19972;54.360;10.076;2022-11-20T13:34:25;100408.16;;;10.20;100.00
33635;BME280;19972;54.360;10.076;2022-11-20T13:36:55;100433.94;;;10.18;100.00
33635;BME280;19972;54.360;10.076;2022-11-20T13:39:26;100450.84;;;9.49;100.00
33635;BME280;19972;54.360;10.076;2022-11-20T13:41:58;100469.34;;;9.50;100.00
33635;BME280;19972;54.360;10.076;2022-11-20T13:44:39;100419.47;;;10.37;100.00
33635;BME280;19972;54.360;10.076;2022-11-20T13:47:21;100495.97;;;9.06;100.00
33635;BME280;19972;54.360;10.076;2022-11-20T13:49:48;100494.13;;;7.40;100.00
33635;BME280;19972;54.360;10.076;2022-11-20T13:55:26;100458.50;;;9.12;100.00
33635;BME280;19972;54.360;10.076;2022-11-20T13:58:18;100451.56;;;8.38;100.00
33635;BME280;19972;54.360;10.076;2022-11-20T14:00:56;100507.25;;;7.74;100.00
33635;BME280;19972;54.360;10.076;2022-11-20T14:03:24;100488.97;;;9.05;100.00